Bernardo Larroude, Argentina
Current Conditions -  °F | °C
As of 8:00 PM on Saturday 20 Dec 2014 (Local Time) from SAOC Reporting Station
Scattered Clouds Scattered Clouds  
Wind Chill: 68°   Ceiling: Unl
Heat Index: 68°   Visibility: 6mi
Dew Point: 37°   Wind: 25mph
Humidity: 33%   Direction: 160°SSE
Pressure: 29.71"   Gusts: 45mph
Location:  35.03°S, 63.57°W
Report Text: SAOC 202300Z 16022G39KT 9999 FEW030 SCT100 20/03 Q1006
Loading
Personal Weather Stations






























Interactive Weather Map New forecast layout! Learn more

10-Day Weather Forecast

Advertisements
Track Severe Weather on mobile